Time;durP1;ratioP1;P1;durP2;ratioP2;P2;SDS_P1;SDS_P2;PMS_P1;PMS_P2;Temp;Humidity;BMP_temperature;BMP_pressure;BME280_temperature;BME280_humidity;BME280_pressure;Samples;Min_cycle;Max_cycle;Signal;HPM_P1;HPM_P2
2022/08/24 00:00:38;;;;;;;12.00;10.80;;;19.30;99.90;;;;;;2106251;28;20120;-72
2022/08/24 00:01:39;;;;;;;12.48;11.27;;;19.30;99.90;;;;;;2114915;28;20038;-71
2022/08/24 00:02:40;;;;;;;13.43;10.95;;;19.30;99.90;;;;;;2106410;28;20085;-72
2022/08/24 00:03:42;;;;;;;12.40;10.85;;;19.30;99.90;;;;;;2114646;28;20106;-73
2022/08/24 00:04:43;;;;;;;12.15;10.70;;;19.40;99.90;;;;;;2115431;28;20053;-72
2022/08/24 00:05:43;;;;;;;12.50;11.23;;;19.30;99.90;;;;;;2115399;28;20039;-72
2022/08/24 00:06:44;;;;;;;11.80;10.60;;;19.40;99.90;;;;;;2115753;28;20035;-72
2022/08/24 00:07:46;;;;;;;12.25;11.05;;;19.30;99.90;;;;;;2115426;28;20024;-72
2022/08/24 00:08:48;;;;;;;12.55;11.18;;;19.40;99.90;;;;;;2115399;28;20392;-73
2022/08/24 00:09:49;;;;;;;11.48;10.38;;;19.30;99.90;;;;;;2114618;28;20112;-72
2022/08/24 00:10:50;;;;;;;12.15;10.95;;;19.30;99.90;;;;;;2114797;28;20019;-73
2022/08/24 00:11:51;;;;;;;11.48;10.38;;;19.30;99.90;;;;;;2114707;28;20035;-72
2022/08/24 00:12:51;;;;;;;11.00;10.00;;;19.30;99.90;;;;;;2114747;28;20028;-72
2022/08/24 00:13:52;;;;;;;11.50;10.40;;;19.40;99.90;;;;;;2114756;28;20027;-72
2022/08/24 00:14:54;;;;;;;11.55;10.20;;;19.30;99.90;;;;;;2115243;28;20031;-72
2022/08/24 00:15:56;;;;;;;11.35;10.23;;;19.30;99.90;;;;;;2115167;28;20027;-72
2022/08/24 00:16:58;;;;;;;11.02;9.93;;;19.30;99.90;;;;;;2114839;28;20031;-72
2022/08/24 00:17:58;;;;;;;11.98;10.27;;;19.40;99.90;;;;;;2114611;28;20031;-72
2022/08/24 00:18:59;;;;;;;11.80;10.70;;;19.30;99.90;;;;;;2115186;28;20038;-72
2022/08/24 00:20:04;;;;;;;11.57;10.48;;;19.30;99.90;;;;;;2115432;28;20060;-72
2022/08/24 00:21:07;;;;;;;10.90;9.90;;;19.30;99.90;;;;;;2105998;28;20028;-73
2022/08/24 00:22:08;;;;;;;11.23;10.13;;;19.30;99.90;;;;;;2106667;28;20031;-72
2022/08/24 00:23:10;;;;;;;11.75;10.65;;;19.30;99.90;;;;;;2123223;27;20042;-71
2022/08/24 00:24:11;;;;;;;11.93;10.73;;;19.30;99.90;;;;;;2115372;28;20020;-72
2022/08/24 00:25:12;;;;;;;11.50;10.32;;;19.40;99.90;;;;;;2115453;28;20039;-72
2022/08/24 00:26:13;;;;;;;11.70;10.50;;;19.30;99.90;;;;;;2115693;28;20027;-73
2022/08/24 00:27:13;;;;;;;11.45;10.35;;;19.30;99.90;;;;;;2115103;28;20466;-72
2022/08/24 00:28:14;;;;;;;11.50;10.40;;;19.30;99.90;;;;;;2114680;28;20436;-73
2022/08/24 00:29:17;;;;;;;10.98;9.88;;;19.30;99.90;;;;;;2106329;28;20023;-72
2022/08/24 00:30:20;;;;;;;11.23;10.13;;;19.30;99.90;;;;;;2106424;28;20020;-71
2022/08/24 00:31:21;;;;;;;11.35;10.20;;;19.30;99.90;;;;;;2115312;28;20031;-72
2022/08/24 00:32:24;;;;;;;10.85;9.85;;;19.30;99.90;;;;;;2114751;28;20047;-73
2022/08/24 00:33:25;;;;;;;10.90;9.90;;;19.30;99.90;;;;;;2106515;28;20028;-72
2022/08/24 00:34:26;;;;;;;12.60;10.80;;;19.30;99.90;;;;;;2106229;28;20501;-72
2022/08/24 00:35:30;;;;;;;11.75;10.60;;;19.30;99.90;;;;;;2114848;28;20077;-73
2022/08/24 00:36:31;;;;;;;13.43;10.27;;;19.30;99.90;;;;;;2114726;28;20107;-72
2022/08/24 00:37:33;;;;;;;11.32;10.20;;;19.30;99.90;;;;;;2114521;28;20031;-71
2022/08/24 00:38:34;;;;;;;12.23;10.98;;;19.30;99.90;;;;;;2114564;28;20042;-72
2022/08/24 00:39:37;;;;;;;11.93;10.80;;;19.30;99.90;;;;;;2114540;28;20020;-72
2022/08/24 00:40:47;;;;;;;11.73;10.60;;;19.30;99.90;;;;;;2106198;28;20417;-72
2022/08/24 00:41:50;;;;;;;11.70;10.50;;;19.30;99.90;;;;;;2107408;28;20470;-72
2022/08/24 00:42:51;;;;;;;12.02;10.48;;;19.30;99.90;;;;;;2114596;28;20069;-71
2022/08/24 00:44:03;;;;;;;12.13;10.68;;;19.30;99.90;;;;;;2115301;28;20027;-72
2022/08/24 00:45:07;;;;;;;14.52;10.90;;;19.30;99.90;;;;;;2106276;28;20046;-71
2022/08/24 00:46:17;;;;;;;11.98;10.77;;;19.30;99.90;;;;;;2106510;28;20358;-71
2022/08/24 00:47:23;;;;;;;12.00;10.75;;;19.30;99.90;;;;;;2114260;28;20050;-71
2022/08/24 00:48:28;;;;;;;16.33;11.07;;;19.30;99.90;;;;;;2114304;28;20115;-72
2022/08/24 00:49:34;;;;;;;12.05;10.85;;;19.30;99.90;;;;;;2115148;28;20497;-71
2022/08/24 00:50:42;;;;;;;12.38;11.07;;;19.30;99.90;;;;;;2114221;28;20594;-72
2022/08/24 00:51:51;;;;;;;12.27;10.73;;;19.30;99.90;;;;;;2114386;28;20520;-73
2022/08/24 00:53:00;;;;;;;12.10;10.90;;;19.20;99.90;;;;;;2114800;28;20027;-71
2022/08/24 00:54:07;;;;;;;11.80;10.70;;;19.20;99.90;;;;;;2115097;28;20019;-71
2022/08/24 00:55:14;;;;;;;11.55;10.13;;;19.30;99.90;;;;;;2113934;28;20053;-71
2022/08/24 00:56:25;;;;;;;11.77;10.00;;;19.20;99.90;;;;;;2114075;28;20035;-72
2022/08/24 00:57:28;;;;;;;;;;;19.30;99.90;;;;;;2114667;28;20035;-72
2022/08/24 00:58:36;;;;;;;11.30;10.15;;;19.20;99.90;;;;;;2114401;28;19937;-71
2022/08/24 00:59:49;;;;;;;13.43;10.77;;;19.30;99.90;;;;;;2114630;28;20028;-72
2022/08/24 01:01:02;;;;;;;12.30;11.10;;;19.30;99.90;;;;;;2115028;28;20035;-72
2022/08/24 01:02:10;;;;;;;12.18;10.98;;;19.20;99.90;;;;;;2114564;28;20481;-72
2022/08/24 01:03:12;;;;;;;11.55;10.50;;;19.20;99.90;;;;;;2114564;28;20020;-71
2022/08/24 01:04:21;;;;;;;12.02;10.82;;;19.20;99.90;;;;;;2106087;28;20034;-72
2022/08/24 01:05:22;;;;;;;11.45;10.25;;;19.20;99.90;;;;;;2106892;28;20107;-72
2022/08/24 01:06:23;;;;;;;11.73;10.52;;;19.20;99.90;;;;;;2105603;28;20490;-71
2022/08/24 01:07:30;;;;;;;12.25;10.98;;;19.20;99.90;;;;;;2114359;28;20053;-71
2022/08/24 01:08:31;;;;;;;13.02;11.57;;;19.20;99.90;;;;;;2114448;28;20024;-71
2022/08/24 01:09:31;;;;;;;11.68;10.48;;;19.20;99.90;;;;;;2114910;28;20102;-71
2022/08/24 01:10:40;;;;;;;11.20;9.93;;;19.20;99.90;;;;;;2114210;28;20036;-71
2022/08/24 01:11:41;;;;;;;12.05;10.70;;;19.20;99.90;;;;;;2107449;28;20039;-71
2022/08/24 01:12:47;;;;;;;11.30;10.20;;;19.20;99.90;;;;;;2106470;28;20032;-71
2022/08/24 01:13:51;;;;;;;11.05;10.00;;;19.20;99.90;;;;;;2107257;28;20016;-71
2022/08/24 01:14:53;;;;;;;11.60;10.45;;;19.20;99.90;;;;;;2106532;28;20028;-71
2022/08/24 01:16:00;;;;;;;11.75;10.57;;;19.20;99.90;;;;;;2105712;28;20016;-71
2022/08/24 01:19:45;;;;;;;12.02;10.82;;;19.20;99.90;;;;;;2108175;28;20405;-71
2022/08/24 01:20:55;;;;;;;11.73;10.63;;;19.20;99.90;;;;;;2106038;28;20521;-71
2022/08/24 01:22:27;;;;;;;11.95;10.82;;;19.20;99.90;;;;;;2114670;28;20619;-71
2022/08/24 01:23:33;;;;;;;13.70;11.35;;;19.20;99.90;;;;;;2114726;28;20027;-71
2022/08/24 01:24:35;;;;;;;11.27;10.13;;;19.20;99.90;;;;;;2114771;28;20083;-71
2022/08/24 01:25:37;;;;;;;11.88;10.73;;;19.20;99.90;;;;;;2114481;28;20097;-72
2022/08/24 01:26:44;;;;;;;11.40;10.30;;;19.20;99.90;;;;;;2113712;28;20031;-71
2022/08/24 01:27:46;;;;;;;11.25;10.25;;;19.20;99.90;;;;;;2113169;28;20024;-71
2022/08/24 01:28:54;;;;;;;12.48;11.18;;;19.20;99.90;;;;;;2104912;28;20095;-74
2022/08/24 01:29:58;;;;;;;12.05;10.60;;;19.10;99.90;;;;;;2105593;28;20035;-72
2022/08/24 01:30:59;;;;;;;11.93;10.43;;;19.10;99.90;;;;;;2113402;28;20026;-72
2022/08/24 01:32:03;;;;;;;11.40;10.20;;;19.10;99.90;;;;;;2113664;28;20505;-74
2022/08/24 01:33:08;;;;;;;11.98;10.68;;;19.10;99.90;;;;;;2106337;28;20386;-72
2022/08/24 01:34:12;;;;;;;12.43;11.00;;;19.10;99.90;;;;;;2105868;28;20032;-72
2022/08/24 01:35:16;;;;;;;12.10;10.82;;;19.10;99.90;;;;;;2105973;28;20020;-74
2022/08/24 01:36:28;;;;;;;11.60;10.50;;;19.00;99.90;;;;;;2105813;28;20024;-75
2022/08/24 01:37:31;;;;;;;12.07;10.40;;;19.00;99.90;;;;;;2107152;28;20421;-72
2022/08/24 01:38:54;;;;;;;12.35;11.13;;;19.00;99.90;;;;;;2109152;28;20443;-73
2022/08/24 01:39:57;;;;;;;11.70;10.50;;;19.00;99.90;;;;;;2109416;28;20057;-73
2022/08/24 01:41:03;;;;;;;12.52;11.02;;;18.90;99.90;;;;;;2114918;28;20233;-72
2022/08/24 01:42:15;;;;;;;11.50;10.35;;;18.90;99.90;;;;;;2114883;28;20039;-73
2022/08/24 01:43:19;;;;;;;12.27;11.07;;;19.00;99.90;;;;;;2107568;28;20032;-73
2022/08/24 01:44:37;;;;;;;13.48;11.05;;;18.90;99.90;;;;;;2098124;28;20028;-72
2022/08/24 01:45:38;;;;;;;12.93;11.02;;;18.90;99.90;;;;;;2110553;27;20063;-73
2022/08/24 01:47:08;;;;;;;13.18;11.52;;;18.90;99.90;;;;;;2113863;28;20039;-73
2022/08/24 01:48:14;;;;;;;12.27;11.00;;;18.90;99.90;;;;;;2103460;28;20028;-72
2022/08/24 01:49:15;;;;;;;11.70;10.50;;;18.90;99.90;;;;;;2106699;28;20568;-72
2022/08/24 01:50:16;;;;;;;12.18;10.98;;;18.80;99.90;;;;;;2114220;28;20015;-73
2022/08/24 01:51:19;;;;;;;12.07;10.90;;;18.90;99.90;;;;;;2113825;28;20572;-72
2022/08/24 01:52:46;;;;;;;12.85;11.43;;;18.90;99.90;;;;;;2106228;28;20032;-73
2022/08/24 01:53:48;;;;;;;12.27;10.98;;;18.80;99.90;;;;;;2109305;28;20031;-72
2022/08/24 01:54:53;;;;;;;12.25;11.00;;;18.80;99.90;;;;;;2105516;28;20031;-72
2022/08/24 01:55:54;;;;;;;12.48;11.18;;;18.80;99.90;;;;;;2106575;28;20024;-73
2022/08/24 01:56:56;;;;;;;13.50;12.10;;;18.80;99.90;;;;;;2114232;28;20027;-72
2022/08/24 01:57:58;;;;;;;13.23;11.85;;;18.80;99.90;;;;;;2114996;28;20035;-72
2022/08/24 01:59:03;;;;;;;12.82;11.52;;;18.70;99.90;;;;;;2105843;28;20028;-72
2022/08/24 02:00:07;;;;;;;13.32;12.00;;;18.70;99.90;;;;;;2106281;28;20028;-71
2022/08/24 02:01:30;;;;;;;13.80;12.30;;;18.70;99.90;;;;;;2121994;27;20091;-73
2022/08/24 02:02:31;;;;;;;13.80;12.25;;;18.70;99.90;;;;;;2113447;28;20023;-72
2022/08/24 02:03:33;;;;;;;13.25;11.90;;;18.70;99.90;;;;;;2113488;28;20032;-72
2022/08/24 02:04:35;;;;;;;13.75;12.40;;;18.70;99.90;;;;;;2105124;28;20020;-72
2022/08/24 02:05:43;;;;;;;13.02;11.65;;;18.70;99.90;;;;;;2114051;28;20035;-73
2022/08/24 02:06:48;;;;;;;13.60;12.00;;;18.70;99.90;;;;;;2113877;28;20028;-72
2022/08/24 02:07:50;;;;;;;13.32;11.93;;;18.70;99.90;;;;;;2112928;28;20020;-71
2022/08/24 02:08:51;;;;;;;13.98;11.88;;;18.60;99.90;;;;;;2104846;28;20051;-72
2022/08/24 02:09:52;;;;;;;13.50;12.20;;;18.60;99.90;;;;;;2104996;28;20454;-70
2022/08/24 02:10:53;;;;;;;13.25;11.85;;;18.60;99.90;;;;;;2104826;28;20032;-70
2022/08/24 02:11:54;;;;;;;13.23;11.90;;;18.60;99.90;;;;;;2096732;28;20116;-71
2022/08/24 02:12:57;;;;;;;13.15;11.60;;;18.60;99.90;;;;;;2105228;28;20052;-73
2022/08/24 02:13:59;;;;;;;12.90;11.60;;;18.60;99.90;;;;;;2105811;28;20708;-73
2022/08/24 02:15:01;;;;;;;13.25;11.95;;;18.60;99.90;;;;;;2113519;28;20023;-73
2022/08/24 02:16:04;;;;;;;12.75;11.55;;;18.60;99.90;;;;;;2105375;28;20049;-72
2022/08/24 02:17:11;;;;;;;12.23;10.98;;;18.60;99.90;;;;;;2106188;28;20043;-72
2022/08/24 02:18:12;;;;;;;14.20;11.73;;;18.60;99.90;;;;;;2121792;28;20038;-73
2022/08/24 02:19:13;;;;;;;13.25;11.85;;;18.60;99.90;;;;;;2113585;28;20030;-71
2022/08/24 02:20:14;;;;;;;13.25;11.85;;;18.60;99.90;;;;;;2105330;28;20048;-72
2022/08/24 02:21:16;;;;;;;13.48;12.05;;;18.60;99.90;;;;;;2105242;28;20539;-72
2022/08/24 02:22:24;;;;;;;14.80;12.95;;;18.60;99.90;;;;;;2113704;28;20076;-72
2022/08/24 02:23:27;;;;;;;14.13;12.38;;;18.60;99.90;;;;;;2114451;28;20039;-72
2022/08/24 02:24:31;;;;;;;15.70;12.25;;;18.50;99.90;;;;;;2113208;28;20031;-71
2022/08/24 02:25:35;;;;;;;14.13;12.38;;;18.60;99.90;;;;;;2106222;28;20522;-72
2022/08/24 02:26:40;;;;;;;13.13;11.52;;;18.60;99.90;;;;;;2113314;28;20106;-72
2022/08/24 02:27:44;;;;;;;13.32;11.90;;;18.50;99.90;;;;;;2105183;28;20020;-73
2022/08/24 02:28:48;;;;;;;12.68;11.43;;;18.50;99.90;;;;;;2097276;28;20031;-74
2022/08/24 02:29:52;;;;;;;14.77;12.50;;;18.50;99.90;;;;;;2105806;28;20027;-73
2022/08/24 02:30:56;;;;;;;13.50;12.18;;;18.50;99.90;;;;;;2105705;28;20027;-70
2022/08/24 02:31:59;;;;;;;15.13;12.05;;;18.50;99.90;;;;;;2104937;28;20086;-72
2022/08/24 02:33:03;;;;;;;16.65;12.40;;;18.40;99.90;;;;;;2113579;28;20560;-72
2022/08/24 02:34:05;;;;;;;13.38;12.02;;;18.40;99.90;;;;;;2113221;28;20023;-72
2022/08/24 02:35:12;;;;;;;14.63;12.18;;;18.40;99.90;;;;;;2112726;28;20566;-72
2022/08/24 02:36:22;;;;;;;15.27;12.52;;;18.40;99.90;;;;;;2097807;28;20021;-73
2022/08/24 02:37:23;;;;;;;16.60;12.50;;;18.30;99.90;;;;;;2098841;28;20506;-72
2022/08/24 02:38:25;;;;;;;16.00;13.05;;;18.30;99.90;;;;;;2113048;28;20035;-73
2022/08/24 02:39:27;;;;;;;15.35;13.13;;;18.30;99.90;;;;;;2113063;28;20576;-72
2022/08/24 02:40:31;;;;;;;17.33;14.10;;;18.30;99.90;;;;;;2104593;28;20024;-72
2022/08/24 02:41:32;;;;;;;16.17;13.70;;;18.30;99.90;;;;;;2105132;28;20028;-72
2022/08/24 02:42:33;;;;;;;17.05;14.07;;;18.20;99.90;;;;;;2096003;28;20037;-73
2022/08/24 02:43:42;;;;;;;16.90;15.18;;;18.20;99.90;;;;;;2096383;28;20032;-72
2022/08/24 02:44:44;;;;;;;17.95;14.77;;;18.20;99.90;;;;;;2105564;28;20028;-72
2022/08/24 02:45:54;;;;;;;16.60;13.60;;;18.20;99.90;;;;;;2113306;28;20039;-71
2022/08/24 02:46:57;;;;;;;15.55;13.63;;;18.20;99.90;;;;;;2113167;28;20039;-73
2022/08/24 02:47:57;;;;;;;14.73;12.95;;;18.20;99.90;;;;;;2112858;28;20030;-72
2022/08/24 02:48:59;;;;;;;15.52;12.52;;;18.10;99.90;;;;;;2113503;28;20023;-71
2022/08/24 02:50:01;;;;;;;14.57;13.05;;;18.10;99.90;;;;;;2112858;28;20028;-72
2022/08/24 02:51:16;;;;;;;15.27;12.88;;;18.10;99.90;;;;;;2104982;28;20044;-73
2022/08/24 02:52:20;;;;;;;14.43;12.48;;;18.10;99.90;;;;;;2106960;28;20367;-73
2022/08/24 02:53:22;;;;;;;13.95;12.45;;;18.10;99.90;;;;;;2113795;28;20072;-73
2022/08/24 02:54:28;;;;;;;13.68;12.18;;;18.10;99.90;;;;;;2113441;28;20031;-71
2022/08/24 02:55:29;;;;;;;14.70;13.15;;;18.10;99.90;;;;;;2113072;28;20042;-73
2022/08/24 02:56:37;;;;;;;13.90;12.48;;;18.00;99.90;;;;;;2114008;28;20024;-71
2022/08/24 02:57:38;;;;;;;14.70;13.20;;;18.00;99.90;;;;;;2114207;28;20026;-74
2022/08/24 02:58:38;;;;;;;15.43;13.77;;;18.00;99.90;;;;;;2112917;28;20062;-73
2022/08/24 02:59:39;;;;;;;15.27;13.68;;;18.00;99.90;;;;;;2104700;28;20433;-74
2022/08/24 03:00:41;;;;;;;14.43;12.55;;;18.00;99.90;;;;;;2113210;28;20036;-73
2022/08/24 03:01:42;;;;;;;14.55;13.05;;;18.00;99.90;;;;;;2113599;28;20020;-75
2022/08/24 03:02:44;;;;;;;15.32;13.68;;;17.90;99.90;;;;;;2104853;28;20027;-72
2022/08/24 03:03:45;;;;;;;14.73;13.20;;;17.90;99.90;;;;;;2105111;28;20059;-73
2022/08/24 03:04:46;;;;;;;14.77;13.23;;;17.90;99.90;;;;;;2104461;28;20390;-73
2022/08/24 03:05:47;;;;;;;15.55;13.95;;;17.90;99.90;;;;;;2104795;28;20028;-73
2022/08/24 03:06:48;;;;;;;13.90;12.60;;;17.90;99.90;;;;;;2113192;28;20031;-73
2022/08/24 03:07:49;;;;;;;14.95;13.40;;;17.90;99.90;;;;;;2113075;28;20557;-72
2022/08/24 03:08:50;;;;;;;14.85;13.40;;;17.90;99.90;;;;;;2113530;28;20028;-74
2022/08/24 03:09:50;;;;;;;14.35;12.95;;;17.90;99.90;;;;;;2116835;28;20020;-71
2022/08/24 03:10:51;;;;;;;14.75;13.23;;;17.90;99.90;;;;;;2108131;28;20485;-73
2022/08/24 03:11:52;;;;;;;15.73;14.07;;;17.90;99.90;;;;;;2108101;28;20062;-71
2022/08/24 03:12:53;;;;;;;16.58;13.85;;;17.80;99.90;;;;;;2116174;28;20024;-72
2022/08/24 03:13:57;;;;;;;15.77;13.68;;;17.80;99.90;;;;;;2107862;28;20028;-71
2022/08/24 03:15:01;;;;;;;14.52;13.13;;;17.80;99.90;;;;;;2108531;28;20417;-71
2022/08/24 03:16:02;;;;;;;15.07;13.52;;;17.80;99.90;;;;;;2108583;28;20458;-72
2022/08/24 03:17:04;;;;;;;15.35;13.75;;;17.80;99.90;;;;;;2108276;28;20032;-72
2022/08/24 03:18:05;;;;;;;15.75;14.25;;;17.80;99.90;;;;;;2105701;28;20521;-72
2022/08/24 03:19:05;;;;;;;16.45;14.80;;;17.80;99.90;;;;;;2105228;28;20097;-73
2022/08/24 03:20:13;;;;;;;15.68;14.05;;;17.80;99.90;;;;;;2105553;28;20206;-71
2022/08/24 03:21:18;;;;;;;15.05;13.55;;;17.70;99.90;;;;;;2107633;28;20028;-73
2022/08/24 03:22:20;;;;;;;15.32;13.73;;;17.70;99.90;;;;;;2115868;28;20027;-72
2022/08/24 03:23:22;;;;;;;16.00;14.30;;;17.70;99.90;;;;;;2115200;28;20151;-72
2022/08/24 03:24:23;;;;;;;16.08;14.45;;;17.70;99.90;;;;;;2106554;28;20472;-72
2022/08/24 03:25:25;;;;;;;15.52;13.93;;;17.70;99.90;;;;;;2115271;28;20107;-71
2022/08/24 03:26:26;;;;;;;15.35;13.77;;;17.70;99.90;;;;;;2115610;28;20599;-72
2022/08/24 03:27:26;;;;;;;15.68;13.52;;;17.70;99.90;;;;;;2106369;28;20106;-73
2022/08/24 03:28:28;;;;;;;15.10;13.70;;;17.70;99.90;;;;;;2106742;28;20024;-72
2022/08/24 03:29:31;;;;;;;15.00;13.50;;;17.60;99.90;;;;;;2105525;28;20089;-72
2022/08/24 03:30:32;;;;;;;15.23;13.73;;;17.70;99.90;;;;;;2105694;28;20632;-72
2022/08/24 03:31:34;;;;;;;16.60;14.30;;;17.70;99.90;;;;;;2105218;28;20516;-72
2022/08/24 03:32:35;;;;;;;15.35;13.75;;;17.70;99.90;;;;;;2105531;28;20115;-72
2022/08/24 03:33:36;;;;;;;15.68;13.52;;;17.70;99.90;;;;;;2105505;28;20482;-71
2022/08/24 03:34:37;;;;;;;15.45;13.32;;;17.70;99.90;;;;;;2113777;28;20066;-71
2022/08/24 03:35:39;;;;;;;15.98;14.27;;;17.70;99.90;;;;;;2113821;28;20058;-72
2022/08/24 03:36:45;;;;;;;15.23;13.82;;;17.70;99.90;;;;;;2105510;28;20724;-72
2022/08/24 03:37:49;;;;;;;16.38;14.30;;;17.70;99.90;;;;;;2105956;28;20035;-72
2022/08/24 03:38:50;;;;;;;16.80;14.30;;;17.70;99.90;;;;;;2105765;28;20103;-72
2022/08/24 03:39:51;;;;;;;15.15;13.65;;;17.80;99.90;;;;;;2105335;28;20536;-71
2022/08/24 03:40:53;;;;;;;14.95;13.45;;;17.80;99.90;;;;;;2105414;28;20081;-72
2022/08/24 03:41:55;;;;;;;16.48;14.07;;;17.80;99.90;;;;;;2105525;28;20047;-72
2022/08/24 03:43:00;;;;;;;16.73;13.73;;;17.80;99.90;;;;;;2105297;28;20040;-72
2022/08/24 03:44:02;;;;;;;14.93;13.43;;;17.80;99.90;;;;;;2105919;28;20024;-73
2022/08/24 03:45:04;;;;;;;15.15;13.60;;;17.80;99.90;;;;;;2105918;28;20137;-72
2022/08/24 03:46:08;;;;;;;14.68;13.20;;;17.80;99.90;;;;;;2106192;28;20107;-72
2022/08/24 03:47:12;;;;;;;14.73;13.23;;;17.90;99.90;;;;;;2098499;28;20399;-73
2022/08/24 03:48:13;;;;;;;16.42;14.57;;;17.90;99.90;;;;;;2105784;28;20546;-72
2022/08/24 03:49:14;;;;;;;15.32;13.68;;;17.90;99.90;;;;;;2105937;28;20086;-72
2022/08/24 03:50:17;;;;;;;15.68;14.13;;;17.90;99.90;;;;;;2105653;28;20020;-72
2022/08/24 03:51:22;;;;;;;16.17;14.48;;;17.80;99.90;;;;;;2105761;28;20171;-73
2022/08/24 03:52:23;;;;;;;14.98;13.50;;;17.90;99.90;;;;;;2106426;28;20390;-72
2022/08/24 03:53:25;;;;;;;15.10;13.60;;;17.80;99.90;;;;;;2105735;28;20038;-73
2022/08/24 03:54:27;;;;;;;15.43;13.85;;;17.90;99.90;;;;;;2105560;28;20496;-73
2022/08/24 03:55:29;;;;;;;14.90;13.32;;;17.80;99.90;;;;;;2114485;28;20554;-73
2022/08/24 03:56:30;;;;;;;15.80;14.15;;;17.80;99.90;;;;;;2114810;28;20116;-73
2022/08/24 03:57:31;;;;;;;15.63;14.02;;;17.80;99.90;;;;;;2105822;28;20049;-72
2022/08/24 03:58:34;;;;;;;15.88;14.30;;;17.80;99.90;;;;;;2105901;28;20101;-73
2022/08/24 03:59:35;;;;;;;16.05;13.82;;;17.90;99.90;;;;;;2114214;28;20027;-72
2022/08/24 04:00:41;;;;;;;16.35;14.65;;;17.80;99.90;;;;;;2105854;28;20115;-72
2022/08/24 04:01:45;;;;;;;16.33;14.63;;;17.80;99.90;;;;;;2114553;28;20038;-72
2022/08/24 04:02:45;;;;;;;15.07;13.50;;;17.80;99.90;;;;;;2105760;28;20677;-71
2022/08/24 04:03:52;;;;;;;17.77;14.38;;;17.90;99.90;;;;;;2106595;28;20079;-72
2022/08/24 04:04:57;;;;;;;15.25;13.75;;;17.90;99.90;;;;;;2107411;28;20028;-73
2022/08/24 04:05:58;;;;;;;15.43;13.77;;;17.90;99.90;;;;;;2107105;28;20497;-73
2022/08/24 04:07:00;;;;;;;15.65;14.15;;;17.90;99.90;;;;;;2106610;28;20533;-73
2022/08/24 04:08:03;;;;;;;14.52;13.00;;;17.90;99.90;;;;;;2106561;28;20120;-72
2022/08/24 04:09:04;;;;;;;15.90;14.32;;;17.90;99.90;;;;;;2113642;28;20050;-72
2022/08/24 04:10:07;;;;;;;17.42;15.10;;;18.00;99.90;;;;;;2115753;28;20378;-73
2022/08/24 04:11:14;;;;;;;16.20;14.48;;;18.00;99.90;;;;;;2115144;28;20024;-73
2022/08/24 04:12:16;;;;;;;16.67;14.85;;;18.00;99.90;;;;;;2107295;28;20020;-73
2022/08/24 04:13:17;;;;;;;16.10;14.45;;;18.00;99.90;;;;;;2106237;28;20023;-73
2022/08/24 04:14:20;;;;;;;17.80;14.13;;;18.00;99.90;;;;;;2106471;28;20192;-72
2022/08/24 04:15:24;;;;;;;18.25;14.27;;;18.00;99.90;;;;;;2107099;28;20038;-72
2022/08/24 04:16:28;;;;;;;15.80;14.10;;;18.00;99.90;;;;;;2098252;28;20028;-72
2022/08/24 04:17:57;;;;;;;15.90;14.15;;;18.00;99.90;;;;;;2092284;28;20027;-71
2022/08/24 04:18:59;;;;;;;15.93;14.32;;;18.10;99.90;;;;;;2110610;28;20043;-72
2022/08/24 04:20:00;;;;;;;17.83;14.57;;;18.10;99.90;;;;;;2114954;28;20030;-72
2022/08/24 04:21:04;;;;;;;15.98;13.93;;;18.10;99.90;;;;;;2106906;28;20024;-72
2022/08/24 04:22:05;;;;;;;16.77;14.77;;;18.10;99.90;;;;;;2106915;28;20358;-72
2022/08/24 04:23:08;;;;;;;16.35;14.60;;;18.10;99.90;;;;;;2114405;28;20020;-72
2022/08/24 04:24:10;;;;;;;15.80;14.23;;;18.10;99.90;;;;;;2106302;28;20506;-72
2022/08/24 04:25:11;;;;;;;16.30;13.80;;;18.10;99.90;;;;;;2114559;28;20068;-71
2022/08/24 04:26:13;;;;;;;18.15;14.85;;;18.20;99.90;;;;;;2106202;28;20020;-71
2022/08/24 04:27:15;;;;;;;16.48;13.95;;;18.20;99.90;;;;;;2106812;27;20040;-73
2022/08/24 04:28:18;;;;;;;15.63;14.02;;;18.20;99.90;;;;;;2114670;28;20028;-73
2022/08/24 04:29:19;;;;;;;16.08;13.45;;;18.20;99.90;;;;;;2114333;28;20409;-73
2022/08/24 04:30:25;;;;;;;15.93;13.75;;;18.20;99.90;;;;;;2098383;28;20052;-73
2022/08/24 04:31:42;;;;;;;15.55;13.95;;;18.20;99.90;;;;;;2102697;28;20024;-72
2022/08/24 04:32:44;;;;;;;14.23;12.82;;;18.20;99.90;;;;;;2105952;28;20130;-72
2022/08/24 04:33:48;;;;;;;15.70;12.68;;;18.20;99.90;;;;;;2106271;28;20044;-73
2022/08/24 04:34:49;;;;;;;13.50;12.18;;;18.20;99.90;;;;;;2106595;28;20387;-72
2022/08/24 04:35:49;;;;;;;17.20;14.82;;;18.30;99.90;;;;;;2105896;28;20078;-72
2022/08/24 04:36:50;;;;;;;15.88;13.95;;;18.30;99.90;;;;;;2106016;28;20063;-72
2022/08/24 04:37:51;;;;;;;16.55;14.77;;;18.30;99.90;;;;;;2105872;28;20028;-73
2022/08/24 04:38:52;;;;;;;16.50;13.77;;;18.30;99.90;;;;;;2105818;28;20055;-72
2022/08/24 04:40:13;;;;;;;14.20;12.80;;;18.30;99.90;;;;;;2114386;28;20028;-72
2022/08/24 04:41:20;;;;;;;14.70;13.13;;;18.30;99.90;;;;;;2114379;28;20528;-73
2022/08/24 04:42:21;;;;;;;14.60;13.07;;;18.30;99.90;;;;;;2106724;28;20020;-73
2022/08/24 04:43:22;;;;;;;15.00;13.40;;;18.30;99.90;;;;;;2106041;28;20111;-72
2022/08/24 04:44:23;;;;;;;15.48;13.90;;;18.30;99.90;;;;;;2114874;28;20024;-72
2022/08/24 04:45:27;;;;;;;14.23;12.82;;;18.30;99.90;;;;;;2114260;28;20085;-74
2022/08/24 04:46:28;;;;;;;15.57;13.90;;;18.40;99.90;;;;;;2106263;28;20045;-73
2022/08/24 04:47:29;;;;;;;18.63;15.95;;;18.40;99.90;;;;;;2097549;28;20032;-73
2022/08/24 04:48:30;;;;;;;18.00;16.10;;;18.40;99.90;;;;;;2105914;28;20024;-74
2022/08/24 04:49:31;;;;;;;16.98;14.88;;;18.40;99.90;;;;;;2123051;27;20023;-71
2022/08/24 04:50:36;;;;;;;21.08;18.00;;;18.40;99.90;;;;;;2114199;28;20115;-72
2022/08/24 04:51:37;;;;;;;18.27;15.35;;;18.40;99.90;;;;;;2106346;28;20036;-72
2022/08/24 04:52:40;;;;;;;20.15;17.13;;;18.40;99.90;;;;;;2106094;28;20043;-72
2022/08/24 04:53:41;;;;;;;22.38;17.15;;;18.50;99.90;;;;;;2105889;28;20016;-71
2022/08/24 04:54:42;;;;;;;17.77;15.88;;;18.50;99.90;;;;;;2105540;28;20039;-71
2022/08/24 04:55:48;;;;;;;16.40;14.15;;;18.50;99.90;;;;;;2106241;28;20055;-72
2022/08/24 04:56:49;;;;;;;16.13;14.23;;;18.50;99.90;;;;;;2106280;28;20760;-72
2022/08/24 04:57:50;;;;;;;15.35;13.75;;;18.60;99.90;;;;;;2106210;28;20040;-72
2022/08/24 04:58:53;;;;;;;15.80;13.77;;;18.60;99.90;;;;;;2115721;28;20065;-72
2022/08/24 04:59:56;;;;;;;14.38;12.88;;;18.60;99.90;;;;;;2107865;28;20034;-71
2022/08/24 05:00:57;;;;;;;16.67;13.00;;;18.60;99.90;;;;;;2107636;28;20020;-71
2022/08/24 05:01:58;;;;;;;13.98;12.45;;;18.70;99.90;;;;;;2107558;28;20031;-73
2022/08/24 05:02:59;;;;;;;13.70;12.40;;;18.70;99.90;;;;;;2107456;28;20118;-72
2022/08/24 05:04:02;;;;;;;14.75;12.65;;;18.70;99.90;;;;;;2107441;28;20114;-72
2022/08/24 05:05:03;;;;;;;15.45;13.18;;;18.80;99.90;;;;;;2115096;28;20023;-72
2022/08/24 05:06:05;;;;;;;16.67;13.77;;;18.80;99.90;;;;;;2107226;28;20034;-73
2022/08/24 05:07:18;;;;;;;14.38;12.15;;;18.80;99.90;;;;;;2107214;28;20534;-72
2022/08/24 05:08:19;;;;;;;13.38;11.98;;;18.80;99.90;;;;;;2116266;28;20020;-73
2022/08/24 05:09:20;;;;;;;14.60;13.00;;;18.90;99.90;;;;;;2114564;28;20046;-71
2022/08/24 05:10:21;;;;;;;15.80;13.70;;;18.90;99.90;;;;;;2114738;28;20440;-71
2022/08/24 05:11:23;;;;;;;17.75;14.05;;;18.90;99.90;;;;;;2114067;28;20035;-71
2022/08/24 05:12:24;;;;;;;15.43;13.45;;;19.00;99.90;;;;;;2106526;28;20791;-71
2022/08/24 05:13:34;;;;;;;18.02;13.52;;;19.00;99.90;;;;;;2107403;28;20019;-71
2022/08/24 05:14:35;;;;;;;14.23;12.77;;;19.10;99.90;;;;;;2106386;28;20246;-72
2022/08/24 05:15:41;;;;;;;14.73;12.52;;;19.20;99.90;;;;;;2114102;28;20050;-72
2022/08/24 05:16:41;;;;;;;15.10;13.57;;;19.20;99.90;;;;;;2114296;28;20047;-72
2022/08/24 05:17:42;;;;;;;16.35;12.98;;;19.30;99.90;;;;;;2114564;28;20023;-73
2022/08/24 05:18:44;;;;;;;15.93;13.90;;;19.30;99.90;;;;;;2114426;28;20654;-72
2022/08/24 05:19:45;;;;;;;17.67;13.50;;;19.40;99.90;;;;;;2105783;28;20024;-73
2022/08/24 05:20:46;;;;;;;22.58;16.05;;;19.50;99.90;;;;;;2105479;28;20398;-71
2022/08/24 05:21:48;;;;;;;16.88;15.00;;;19.60;99.90;;;;;;2105190;28;20115;-72
2022/08/24 05:22:52;;;;;;;17.23;13.80;;;19.70;99.90;;;;;;2097374;28;20100;-71
2022/08/24 05:23:53;;;;;;;17.38;13.40;;;19.80;99.90;;;;;;2113969;28;20027;-72
2022/08/24 05:24:54;;;;;;;18.23;13.05;;;20.00;99.90;;;;;;2113369;28;20020;-71
2022/08/24 05:26:05;;;;;;;15.40;12.13;;;20.20;99.90;;;;;;2113756;28;20109;-71